createdAt,value
2023-05-14T00:02:53.656Z,7.80
2023-05-14T00:07:57.136Z,7.72
2023-05-14T00:13:00.515Z,7.57
2023-05-14T00:18:05.472Z,6.88
2023-05-14T00:23:08.838Z,7.27
2023-05-14T00:28:12.313Z,7.00
2023-05-14T00:33:17.204Z,6.90
2023-05-14T00:38:20.731Z,7.10
2023-05-14T00:43:25.266Z,7.10
2023-05-14T00:48:30.577Z,6.67
2023-05-14T00:53:34.200Z,7.27
2023-05-14T00:58:37.512Z,6.40
2023-05-14T01:03:43.405Z,6.30
2023-05-14T01:08:54.720Z,6.78
2023-05-14T01:14:09.947Z,6.38
2023-05-14T01:19:26.112Z,6.40
2023-05-14T01:24:30.857Z,6.17
2023-05-14T01:29:36.737Z,5.93
2023-05-14T01:34:42.042Z,5.70
2023-05-14T01:39:47.153Z,5.47
2023-05-14T01:44:50.556Z,6.35
2023-05-14T01:49:54.115Z,6.60
2023-05-14T01:55:00.101Z,6.30
2023-05-14T02:00:04.367Z,7.20
2023-05-14T02:05:17.206Z,6.70
2023-05-14T02:10:22.462Z,6.82
2023-05-14T02:15:26.931Z,7.47
2023-05-14T02:20:30.426Z,7.60
2023-05-14T02:25:35.217Z,8.80
2023-05-14T02:30:38.748Z,8.50
2023-05-14T02:35:42.226Z,8.90
2023-05-14T02:40:47.059Z,8.63
2023-05-14T02:45:50.453Z,8.45
2023-05-14T02:50:53.818Z,7.97
2023-05-14T02:55:58.599Z,8.60
2023-05-14T03:01:02.093Z,8.40
2023-05-14T03:06:06.192Z,9.60
2023-05-14T03:11:10.947Z,9.30
2023-05-14T03:16:14.358Z,9.13
2023-05-14T03:21:17.881Z,10.75
2023-05-14T03:26:22.841Z,9.43
2023-05-14T03:31:29.534Z,9.30
2023-05-14T03:36:34.241Z,9.43
2023-05-14T03:41:39.429Z,9.57
2023-05-14T03:46:42.950Z,9.73
2023-05-14T03:51:46.606Z,10.25
2023-05-14T03:56:51.675Z,9.38
2023-05-14T04:01:55.194Z,10.27
2023-05-14T04:06:58.703Z,9.50
2023-05-14T04:12:07.638Z,9.77
2023-05-14T04:17:11.195Z,10.60
2023-05-14T04:22:14.807Z,10.35
2023-05-14T04:27:23.371Z,10.90
2023-05-14T04:32:26.991Z,9.25
2023-05-14T04:37:31.004Z,9.03
2023-05-14T04:42:35.910Z,8.63
2023-05-14T04:47:39.812Z,8.23
2023-05-14T04:52:43.231Z,7.63
2023-05-14T04:57:48.042Z,7.95
2023-05-14T05:02:51.400Z,7.53
2023-05-14T05:12:59.610Z,6.05
2023-05-14T05:18:02.973Z,4.90
2023-05-14T05:23:06.461Z,4.90
2023-05-14T05:28:11.179Z,4.28
2023-05-14T05:33:15.346Z,4.13
2023-05-14T05:38:20.633Z,4.03
2023-05-14T05:43:25.934Z,3.57
2023-05-14T05:48:29.871Z,3.80
2023-05-14T05:53:33.256Z,3.30
2023-05-14T05:58:37.964Z,3.17
2023-05-14T06:03:41.355Z,3.15
2023-05-14T06:08:44.603Z,2.90
2023-05-14T06:13:49.325Z,3.40
2023-05-14T06:18:52.912Z,3.60
2023-05-14T06:23:56.336Z,3.80
2023-05-14T06:29:01.304Z,3.40
2023-05-14T06:34:04.675Z,3.53
2023-05-14T06:39:08.197Z,2.80
2023-05-14T06:44:12.808Z,3.08
2023-05-14T06:49:16.100Z,3.22
2023-05-14T06:54:20.559Z,3.60
2023-05-14T06:59:25.369Z,4.07
2023-05-14T07:04:28.986Z,3.80
2023-05-14T07:09:32.248Z,3.60
2023-05-14T07:14:36.943Z,3.63
2023-05-14T07:19:41.125Z,3.03
2023-05-14T07:24:44.478Z,2.55
2023-05-14T07:29:50.886Z,2.50
2023-05-14T07:34:54.188Z,2.17
2023-05-14T07:39:57.569Z,2.00
2023-05-14T07:45:02.374Z,1.98
2023-05-14T07:50:06.377Z,1.90
2023-05-14T07:55:10.684Z,1.80
2023-05-14T08:00:16.841Z,1.70
2023-05-14T08:05:20.554Z,1.90
2023-05-14T08:10:25.019Z,1.80
2023-05-14T08:15:30.369Z,2.40
2023-05-14T08:20:33.924Z,2.22
2023-05-14T08:25:37.369Z,2.00
2023-05-14T08:30:42.235Z,1.80
2023-05-14T08:35:45.672Z,1.83
2023-05-14T08:40:50.675Z,2.10
2023-05-14T08:45:59.889Z,2.00
2023-05-14T08:51:04.051Z,1.80
2023-05-14T08:56:09.790Z,1.60
2023-05-14T09:01:14.657Z,1.63
2023-05-14T09:06:18.445Z,1.60
2023-05-14T09:11:21.706Z,1.60
2023-05-14T09:16:27.390Z,1.70
2023-05-14T09:21:33.458Z,1.90
2023-05-14T09:26:36.933Z,1.80
2023-05-14T09:31:41.588Z,1.70
2023-05-14T09:36:44.890Z,1.80
2023-05-14T09:41:48.202Z,1.90
2023-05-14T09:46:55.183Z,1.90
2023-05-14T09:51:58.619Z,1.90
2023-05-14T09:57:02.023Z,1.52
2023-05-14T10:02:08.294Z,1.85
2023-05-14T10:07:12.143Z,1.60
2023-05-14T10:12:17.865Z,1.67
2023-05-14T10:17:23.583Z,1.58
2023-05-14T10:22:32.610Z,1.60
2023-05-14T10:27:36.400Z,1.50
2023-05-14T10:32:44.353Z,1.50
2023-05-14T10:37:48.064Z,1.45
2023-05-14T10:42:51.642Z,1.70
2023-05-14T10:47:56.515Z,1.60
2023-05-14T10:52:59.744Z,1.33
2023-05-14T10:58:06.794Z,1.40
2023-05-14T11:03:13.492Z,1.05
2023-05-14T11:13:21.114Z,1.10
2023-05-14T11:18:29.833Z,1.20
2023-05-14T11:23:33.225Z,1.33
2023-05-14T11:28:37.272Z,1.23
2023-05-14T11:33:43.142Z,1.30
2023-05-14T11:38:52.370Z,1.35
2023-05-14T11:43:56.009Z,1.50
2023-05-14T11:49:00.621Z,1.30
2023-05-14T11:54:04.104Z,1.27
2023-05-14T11:59:07.986Z,1.40
2023-05-14T12:04:12.792Z,1.40
2023-05-14T12:09:18.010Z,1.40
2023-05-14T12:14:22.225Z,1.27
2023-05-14T12:19:26.943Z,1.23
2023-05-14T12:24:30.867Z,1.30
2023-05-14T12:29:38.868Z,3.07
2023-05-14T12:34:43.560Z,1.30
2023-05-14T12:39:47.062Z,3.07
2023-05-14T12:44:50.396Z,1.63
2023-05-14T12:49:55.111Z,3.67
2023-05-14T12:54:58.607Z,2.70
2023-05-14T13:00:02.545Z,1.98
2023-05-14T13:05:07.864Z,2.80
2023-05-14T13:10:12.161Z,2.92
2023-05-14T13:15:15.830Z,2.70
2023-05-14T13:20:20.756Z,3.30
2023-05-14T13:25:24.332Z,2.83
2023-05-14T13:30:27.822Z,2.70
2023-05-14T13:35:32.591Z,1.98
2023-05-14T13:45:39.020Z,1.40
2023-05-14T13:50:44.003Z,1.67
2023-05-14T13:55:49.059Z,2.17
2023-05-14T14:00:52.814Z,1.30
2023-05-14T14:05:58.905Z,1.40
2023-05-14T14:11:02.185Z,1.40
2023-05-14T14:16:06.371Z,1.55
2023-05-14T14:21:11.317Z,1.77
2023-05-14T14:26:14.755Z,2.25
2023-05-14T14:31:18.091Z,2.00
2023-05-14T14:36:22.712Z,1.70
2023-05-14T14:41:26.703Z,2.07
2023-05-14T14:46:30.015Z,2.00
2023-05-14T14:51:34.818Z,2.08
2023-05-14T14:56:38.270Z,1.70
2023-05-14T15:01:41.789Z,1.70
2023-05-14T15:06:46.440Z,2.57
2023-05-14T15:11:49.814Z,1.90
2023-05-14T15:16:53.260Z,1.90
2023-05-14T15:21:57.974Z,1.63
2023-05-14T15:27:01.238Z,1.63
2023-05-14T15:32:04.919Z,1.70
2023-05-14T15:37:09.901Z,1.90
2023-05-14T15:42:13.223Z,2.70
2023-05-14T15:47:16.990Z,2.10
2023-05-14T15:52:22.017Z,2.47
2023-05-14T15:57:25.795Z,2.60
2023-05-14T16:02:30.608Z,2.30
2023-05-14T16:07:35.809Z,2.03
2023-05-14T16:12:39.476Z,2.03
2023-05-14T16:17:42.885Z,2.00
2023-05-14T16:22:47.544Z,2.10
2023-05-14T16:27:51.022Z,1.90
2023-05-14T16:32:54.333Z,1.65
2023-05-14T16:37:59.375Z,1.60
2023-05-14T16:43:02.738Z,2.90
2023-05-14T16:48:06.418Z,2.45
2023-05-14T16:53:11.084Z,2.23
2023-05-14T16:58:14.316Z,2.33
2023-05-14T17:03:17.597Z,1.83
2023-05-14T17:08:22.504Z,2.13
2023-05-14T17:13:25.819Z,1.70
2023-05-14T17:18:29.881Z,1.70
2023-05-14T17:23:34.820Z,1.83
2023-05-14T17:28:38.114Z,1.75
2023-05-14T17:33:41.338Z,1.40
2023-05-14T17:38:45.931Z,1.88
2023-05-14T17:43:50.811Z,1.60
2023-05-14T17:48:54.044Z,1.70
2023-05-14T17:53:58.812Z,1.65
2023-05-14T17:59:02.556Z,2.10
2023-05-14T18:04:06.413Z,2.40
2023-05-14T18:09:11.369Z,2.53
2023-05-14T18:14:14.781Z,2.42
2023-05-14T18:19:18.364Z,2.53
2023-05-14T18:24:23.250Z,3.20
2023-05-14T18:29:26.615Z,3.40
2023-05-14T18:34:30.010Z,3.13
2023-05-14T18:39:34.675Z,3.20
2023-05-14T18:44:39.499Z,3.90
2023-05-14T18:49:42.881Z,4.80
2023-05-14T18:54:47.618Z,4.60
2023-05-14T18:59:51.009Z,5.57
2023-05-14T19:04:54.258Z,5.70
2023-05-14T19:09:58.882Z,5.40
2023-05-14T19:15:02.172Z,5.43
2023-05-14T19:20:06.494Z,6.15
2023-05-14T19:25:12.743Z,7.75
2023-05-14T19:30:16.419Z,4.93
2023-05-14T19:35:19.644Z,6.57
2023-05-14T19:40:24.365Z,6.50
2023-05-14T19:45:28.226Z,5.95
2023-05-14T19:50:31.541Z,6.50
2023-05-14T19:55:36.146Z,6.47
2023-05-14T20:00:39.433Z,4.90
2023-05-14T20:05:44.874Z,4.70
2023-05-14T20:10:49.742Z,5.38
2023-05-14T20:15:53.379Z,4.47
2023-05-14T20:20:56.714Z,5.25
2023-05-14T20:26:02.532Z,5.40
2023-05-14T20:31:05.980Z,5.57
2023-05-14T20:36:10.094Z,5.90
2023-05-14T20:41:15.187Z,6.88
2023-05-14T20:46:18.501Z,6.40
2023-05-14T20:51:22.072Z,5.60
2023-05-14T20:56:27.294Z,5.72
2023-05-14T21:01:30.766Z,5.70
2023-05-14T21:06:34.246Z,6.07
2023-05-14T21:11:39.091Z,5.93
2023-05-14T21:16:42.662Z,6.03
2023-05-14T21:21:47.396Z,6.35
2023-05-14T21:26:53.513Z,5.90
2023-05-14T21:31:57.110Z,5.80
2023-05-14T21:37:00.557Z,5.20
2023-05-14T21:42:05.798Z,4.43
2023-05-14T21:47:09.418Z,4.72
2023-05-14T21:52:12.780Z,4.57
2023-05-14T21:57:17.542Z,5.40
2023-05-14T22:02:21.144Z,5.15
2023-05-14T22:07:24.783Z,5.07
2023-05-14T22:12:29.785Z,5.18
2023-05-14T22:17:34.453Z,4.72
2023-05-14T22:22:38.024Z,4.80
2023-05-14T22:27:42.808Z,3.78
2023-05-14T22:32:46.731Z,3.20
2023-05-14T22:37:50.077Z,3.00
2023-05-14T22:42:54.785Z,2.70
2023-05-14T22:47:58.109Z,2.60
2023-05-14T22:53:01.481Z,2.83
2023-05-14T22:58:06.713Z,2.90
2023-05-14T23:03:10.180Z,2.88
2023-05-14T23:08:13.518Z,2.70
2023-05-14T23:13:19.257Z,2.80
2023-05-14T23:18:24.050Z,2.90
2023-05-14T23:23:27.471Z,3.35
2023-05-14T23:28:32.449Z,2.97
2023-05-14T23:33:36.011Z,2.87
2023-05-14T23:38:39.441Z,2.50
2023-05-14T23:43:44.662Z,2.60
2023-05-14T23:48:48.226Z,2.75
2023-05-14T23:53:56.349Z,2.67
2023-05-14T23:59:01.121Z,2.70
